createdAt,value
2019-02-22T07:49:41.823Z,50.45
2019-02-22T07:50:11.727Z,52.00
2019-02-22T07:50:40.993Z,54.42
2019-02-22T07:51:10.190Z,56.13
2019-02-22T07:52:17.018Z,32.00
2019-02-22T08:13:24.045Z,23.62
2019-02-22T08:14:28.356Z,20.40
2019-02-22T08:14:58.261Z,26.93
2019-02-22T08:15:28.915Z,30.82
2019-02-22T08:15:58.431Z,21.70
2019-02-22T08:16:30.107Z,29.98
2019-02-22T08:17:02.148Z,23.90
2019-02-22T08:17:32.149Z,26.40
2019-02-22T08:18:02.790Z,27.85
2019-02-22T08:18:34.348Z,27.48
2019-02-22T08:19:06.756Z,23.95
2019-02-22T08:19:37.612Z,25.75
2019-02-22T08:20:09.534Z,26.55
2019-02-22T08:20:43.714Z,18.23
2019-02-22T08:21:13.715Z,32.85
2019-02-22T08:21:44.555Z,26.23
2019-02-22T08:22:14.391Z,23.20
2019-02-22T08:22:43.915Z,27.50
2019-02-22T08:23:15.129Z,26.48
2019-02-22T08:23:44.951Z,22.25
2019-02-22T08:24:14.514Z,25.45
2019-02-22T08:24:44.073Z,24.02
2019-02-22T08:25:15.404Z,34.40
2019-02-22T08:25:47.343Z,26.05
2019-02-22T08:26:16.890Z,33.40
2019-02-22T08:26:47.422Z,35.45
2019-02-22T08:27:18.249Z,37.65
2019-02-22T08:27:53.759Z,35.63
2019-02-22T08:28:23.015Z,39.03
2019-02-22T08:28:54.931Z,39.90
2019-02-22T08:29:24.979Z,48.68
2019-02-22T08:29:54.459Z,40.60
2019-02-22T08:30:24.257Z,38.23
2019-02-22T08:30:55.035Z,45.23
2019-02-22T08:31:26.689Z,41.25
2019-02-22T08:31:57.692Z,38.98
2019-02-22T08:32:29.619Z,44.55
2019-02-22T08:32:59.556Z,41.23
2019-02-22T08:33:33.891Z,48.23
2019-02-22T08:34:07.603Z,38.95
2019-02-22T08:34:42.873Z,37.45
2019-02-22T08:35:18.798Z,43.90
2019-02-22T08:35:49.995Z,34.20
2019-02-22T08:36:21.102Z,36.15
2019-02-22T08:36:55.092Z,38.85
2019-02-22T08:37:27.718Z,35.20
2019-02-22T08:38:02.647Z,39.48
2019-02-22T08:38:35.722Z,35.33
2019-02-22T08:39:08.766Z,44.23
2019-02-22T08:39:42.836Z,46.98
2019-02-22T08:40:16.817Z,42.70
2019-02-22T08:40:50.916Z,43.33
2019-02-22T08:41:27.184Z,41.88
2019-02-22T08:42:01.803Z,40.08
2019-02-22T08:42:38.335Z,43.52
2019-02-22T08:43:14.293Z,38.55
2019-02-22T08:43:48.577Z,42.90
2019-02-22T08:44:22.587Z,38.65
2019-02-22T08:44:57.067Z,36.53
2019-02-22T08:45:31.854Z,37.80
2019-02-22T08:46:08.136Z,39.42
2019-02-22T08:46:42.787Z,39.05
2019-02-22T08:47:19.094Z,41.80
2019-02-22T08:47:52.308Z,36.25
2019-02-22T08:48:24.429Z,36.03
2019-02-22T08:48:58.189Z,37.15
2019-02-22T08:49:29.027Z,37.45
2019-02-22T08:49:59.171Z,36.30
2019-02-22T08:50:28.197Z,34.48
2019-02-22T08:51:02.338Z,35.78
2019-02-22T08:51:36.918Z,36.65
2019-02-22T08:52:11.156Z,40.52
2019-02-22T08:52:43.051Z,39.18
2019-02-22T08:53:15.978Z,35.73
2019-02-22T08:53:51.517Z,34.18
2019-02-22T08:54:24.248Z,39.63
2019-02-22T08:54:57.519Z,35.68
2019-02-22T08:55:32.340Z,33.28
2019-02-22T08:56:03.729Z,34.92
2019-02-22T08:56:34.667Z,29.37
2019-02-22T08:57:04.323Z,34.98
2019-02-22T08:57:34.968Z,36.38
2019-02-22T08:58:04.343Z,34.40
2019-02-22T08:58:33.431Z,36.33
2019-02-22T08:59:02.921Z,34.05
2019-02-22T08:59:35.531Z,39.58
2019-02-22T09:00:10.052Z,45.48
2019-02-22T09:00:43.999Z,36.33
2019-02-22T09:01:17.750Z,41.40
2019-02-22T09:01:49.363Z,38.17
2019-02-22T09:02:20.414Z,33.18
2019-02-22T09:02:50.074Z,33.67
2019-02-22T09:03:19.899Z,34.05
2019-02-22T09:03:51.048Z,41.68
2019-02-22T09:04:21.609Z,32.58
2019-02-22T09:05:20.813Z,28.15
2019-02-22T09:05:51.878Z,31.75
2019-02-22T09:06:24.362Z,30.50
2019-02-22T09:06:56.740Z,36.60
2019-02-22T09:07:29.694Z,32.40
2019-02-22T09:08:03.543Z,31.95
2019-02-22T09:08:35.102Z,39.00
2019-02-22T09:09:07.395Z,38.73
2019-02-22T09:09:36.965Z,34.80
2019-02-22T09:10:09.825Z,30.68
2019-02-22T09:10:40.719Z,35.43
2019-02-22T09:11:10.703Z,33.80
2019-02-22T09:11:42.081Z,37.73
2019-02-22T09:12:11.685Z,33.45
2019-02-22T09:12:42.785Z,34.53
2019-02-22T09:13:12.281Z,30.75
2019-02-22T09:13:44.653Z,38.92
2019-02-22T09:14:18.261Z,37.63
2019-02-22T09:14:50.173Z,33.48
2019-02-22T09:15:21.573Z,35.40
2019-02-22T09:15:53.353Z,30.75
2019-02-22T09:16:25.614Z,30.52
2019-02-22T09:16:55.646Z,35.50
2019-02-22T09:17:26.341Z,28.87
2019-02-22T09:17:59.380Z,32.00
2019-02-22T09:18:33.582Z,28.00
2019-02-22T09:19:06.843Z,30.05
2019-02-22T09:19:41.085Z,28.27
2019-02-22T09:20:15.120Z,30.75
2019-02-22T09:20:48.060Z,35.50
2019-02-22T09:21:20.251Z,29.90
2019-02-22T09:21:54.745Z,29.72
2019-02-22T09:22:30.222Z,29.05
2019-02-22T09:23:07.171Z,30.10
2019-02-22T09:23:36.496Z,31.75
2019-02-22T09:24:11.201Z,29.35
2019-02-22T09:24:42.731Z,30.45
2019-02-22T09:25:14.415Z,34.05
2019-02-22T09:25:45.957Z,33.08
2019-02-22T09:26:16.071Z,31.40
2019-02-22T09:26:45.159Z,31.50
2019-02-22T09:27:14.414Z,30.92
2019-02-22T09:27:44.190Z,25.25
2019-02-22T09:28:13.428Z,31.42
2019-02-22T09:28:44.841Z,27.85
2019-02-22T09:29:14.529Z,34.98
2019-02-22T09:29:58.151Z,27.10
2019-02-22T09:30:21.725Z,32.53
2019-02-22T09:30:54.773Z,50.85
2019-02-22T09:31:26.628Z,32.65
2019-02-22T09:32:17.034Z,32.03
2019-02-22T09:32:47.055Z,28.12
2019-02-22T09:33:17.327Z,35.92
2019-02-22T09:33:46.712Z,29.65
2019-02-22T09:34:16.377Z,31.25
2019-02-22T09:34:46.233Z,28.32
2019-02-22T09:35:16.003Z,31.25
2019-02-22T09:35:45.834Z,32.23
2019-02-22T09:36:15.411Z,34.67
2019-02-22T09:36:45.455Z,31.23
2019-02-22T09:37:17.536Z,30.10
2019-02-22T09:37:49.080Z,27.70
2019-02-22T09:38:19.565Z,34.03
2019-02-22T09:38:48.760Z,27.58
2019-02-22T09:39:17.967Z,25.90
2019-02-22T09:39:49.054Z,27.42
2019-02-22T09:40:19.637Z,27.42
2019-02-22T09:40:49.873Z,27.13
2019-02-22T09:41:19.174Z,28.95
2019-02-22T09:41:50.984Z,28.80
2019-02-22T09:42:24.174Z,26.77
2019-02-22T09:42:55.588Z,30.68
2019-02-22T09:43:27.583Z,35.65
2019-02-22T09:43:57.110Z,27.82
2019-02-22T09:44:27.202Z,26.45
2019-02-22T09:44:58.665Z,33.92
2019-02-22T09:45:28.714Z,29.30
2019-02-22T09:45:57.986Z,29.18
2019-02-22T09:46:27.740Z,25.55
2019-02-22T09:46:56.934Z,29.48
2019-02-22T09:47:26.134Z,28.12
2019-02-22T09:47:55.426Z,30.35
2019-02-22T09:48:25.804Z,29.05
2019-02-22T09:48:55.795Z,27.20
2019-02-22T09:49:24.995Z,27.48
2019-02-22T09:49:54.791Z,28.35
2019-02-22T09:50:24.856Z,35.23
2019-02-22T09:50:54.396Z,26.48
2019-02-22T09:51:24.583Z,28.95
2019-02-22T09:52:22.436Z,26.15
2019-02-22T09:52:52.255Z,29.63
2019-02-22T09:53:21.591Z,29.37
2019-02-22T09:53:51.190Z,24.32
2019-02-22T09:54:20.329Z,33.23
2019-02-22T09:54:50.885Z,26.02
2019-02-22T09:55:22.260Z,28.75
2019-02-22T09:55:51.599Z,25.97
2019-02-22T09:56:21.022Z,35.25
2019-02-22T09:56:50.997Z,26.35
2019-02-22T09:57:20.410Z,27.90
2019-02-22T09:57:50.355Z,31.42
2019-02-22T09:58:21.312Z,26.23
2019-02-22T09:58:52.727Z,36.65
2019-02-22T09:59:24.165Z,27.02
2019-02-22T09:59:55.858Z,31.77
2019-02-22T10:00:27.225Z,27.40
2019-02-22T10:00:57.260Z,30.48
2019-02-22T10:01:26.916Z,32.25
2019-02-22T10:01:56.494Z,31.73
2019-02-22T10:02:26.287Z,32.17
2019-02-22T10:02:55.683Z,26.50
2019-02-22T10:03:26.214Z,27.77
2019-02-22T10:03:58.162Z,29.35
2019-02-22T10:04:27.592Z,27.27
2019-02-22T10:04:57.579Z,28.05
2019-02-22T10:05:27.446Z,30.20
2019-02-22T10:05:57.076Z,28.42
2019-02-22T10:06:28.239Z,31.57
2019-02-22T10:07:07.898Z,26.52
2019-02-22T10:07:38.702Z,29.42
2019-02-22T10:08:15.610Z,27.02
2019-02-22T10:08:49.493Z,28.10
2019-02-22T10:09:23.009Z,27.42
2019-02-22T10:09:57.072Z,31.48
2019-02-22T10:10:31.387Z,27.70
2019-02-22T10:11:05.016Z,25.17
2019-02-22T10:11:39.380Z,26.35
2019-02-22T10:12:12.976Z,28.77
2019-02-22T10:12:47.493Z,28.60
2019-02-22T10:13:21.434Z,31.25
2019-02-22T10:14:06.272Z,26.02
2019-02-22T10:14:33.912Z,30.57
2019-02-22T10:15:16.571Z,33.38
2019-02-22T10:15:52.564Z,25.65
2019-02-22T10:16:28.699Z,27.65
2019-02-22T10:17:05.252Z,31.17
2019-02-22T10:17:39.778Z,28.25
2019-02-22T10:18:10.957Z,37.90
2019-02-22T10:18:42.761Z,36.93
2019-02-22T10:19:14.638Z,30.95
2019-02-22T10:19:46.295Z,36.38
2019-02-22T10:20:20.565Z,30.92
2019-02-22T10:20:53.122Z,32.80
2019-02-22T10:21:24.064Z,31.50
2019-02-22T10:21:57.744Z,37.23
2019-02-22T10:22:27.333Z,31.20
2019-02-22T10:23:00.085Z,35.95
2019-02-22T10:23:30.930Z,28.32
2019-02-22T10:24:01.024Z,35.60
2019-02-22T10:24:33.103Z,33.00
2019-02-22T10:25:04.296Z,30.60
2019-02-22T10:25:34.305Z,27.42
2019-02-22T10:26:03.733Z,26.85
2019-02-22T10:26:42.030Z,35.23
2019-02-22T10:27:15.077Z,26.93
2019-02-22T10:27:48.658Z,26.40
2019-02-22T10:28:20.552Z,26.12
2019-02-22T10:28:51.141Z,33.70
2019-02-22T10:29:25.904Z,26.15
2019-02-22T10:29:59.676Z,32.33
2019-02-22T10:30:31.833Z,28.57
2019-02-22T10:31:03.135Z,33.88
2019-02-22T10:31:34.539Z,29.80
2019-02-22T10:32:07.524Z,28.98
2019-02-22T10:32:37.041Z,26.20
2019-02-22T10:33:08.005Z,28.40
2019-02-22T10:33:41.022Z,24.23
2019-02-22T10:34:11.231Z,33.28
2019-02-22T10:35:10.227Z,28.05
2019-02-22T10:35:42.197Z,29.57
2019-02-22T10:36:12.187Z,25.32
2019-02-22T10:36:45.381Z,23.52
2019-02-22T10:37:19.061Z,26.62
2019-02-22T10:37:50.586Z,26.48
2019-02-22T10:38:22.040Z,29.07
2019-02-22T10:38:54.709Z,23.95
2019-02-22T10:39:28.396Z,37.35
2019-02-22T10:40:01.938Z,28.87
2019-02-22T10:40:32.285Z,32.98
2019-02-22T10:41:03.651Z,27.37
2019-02-22T10:41:34.339Z,28.75
2019-02-22T10:42:04.509Z,27.55
2019-02-22T10:42:36.454Z,28.17
2019-02-22T10:43:10.810Z,31.33
2019-02-22T10:43:44.021Z,26.93
2019-02-22T10:44:17.819Z,24.72
2019-02-22T10:44:45.550Z,26.37
2019-02-22T10:45:17.115Z,34.55
2019-02-22T10:45:49.044Z,26.07
2019-02-22T10:46:22.420Z,25.77
2019-02-22T10:46:56.526Z,28.90
2019-02-22T10:47:30.912Z,27.80
2019-02-22T10:48:02.477Z,24.37
2019-02-22T10:48:32.007Z,31.35
2019-02-22T10:49:01.723Z,30.82
2019-02-22T10:49:32.067Z,22.93
2019-02-22T10:50:01.738Z,26.73
2019-02-22T10:50:32.422Z,27.22
2019-02-22T10:51:02.290Z,20.70
2019-02-22T10:51:34.213Z,26.30
2019-02-22T10:52:04.471Z,28.85
2019-02-22T10:52:37.775Z,24.90
2019-02-22T10:53:07.774Z,22.50
2019-02-22T10:53:37.268Z,21.25
2019-02-22T10:54:10.937Z,22.80
2019-02-22T10:54:43.834Z,27.27
2019-02-22T10:55:17.163Z,25.72
2019-02-22T10:55:48.709Z,25.60
2019-02-22T10:56:20.151Z,24.10
2019-02-22T10:56:49.810Z,27.55
2019-02-22T10:57:21.539Z,24.43
2019-02-22T10:57:52.128Z,25.25
2019-02-22T10:58:23.386Z,30.45
2019-02-22T10:58:54.107Z,24.45
2019-02-22T10:59:26.192Z,31.82
2019-02-22T10:59:56.636Z,23.77
2019-02-22T11:00:26.281Z,23.83
2019-02-22T11:00:57.278Z,22.07
2019-02-22T11:01:27.718Z,19.35
2019-02-22T11:02:00.628Z,25.55
2019-02-22T11:02:34.033Z,22.67
2019-02-22T11:03:05.790Z,25.77
2019-02-22T11:03:39.160Z,25.20
2019-02-22T11:04:12.852Z,25.55
2019-02-22T11:04:44.421Z,22.02
2019-02-22T11:05:18.325Z,22.37
2019-02-22T11:05:51.364Z,24.12
2019-02-22T11:06:25.473Z,23.18
2019-02-22T11:07:01.255Z,23.35
2019-02-22T11:07:37.153Z,26.15
2019-02-22T11:08:11.104Z,28.15
2019-02-22T11:08:45.695Z,27.32
2019-02-22T11:09:20.560Z,22.90
2019-02-22T11:09:54.775Z,23.15
2019-02-22T11:10:29.259Z,22.67
2019-02-22T11:11:05.167Z,24.57
2019-02-22T11:11:39.710Z,23.67
2019-02-22T11:12:12.505Z,20.17
2019-02-22T11:12:46.482Z,19.30
2019-02-22T11:13:21.412Z,25.68
2019-02-22T11:13:55.703Z,25.02
2019-02-22T11:14:29.474Z,20.43
2019-02-22T11:15:01.933Z,32.45
2019-02-22T11:15:36.828Z,21.93
2019-02-22T11:16:11.418Z,21.17
2019-02-22T11:16:45.150Z,24.18
2019-02-22T11:17:20.262Z,23.32
2019-02-22T11:17:55.540Z,26.57
2019-02-22T11:18:42.402Z,34.13
2019-02-22T11:19:17.871Z,25.23
2019-02-22T11:19:55.539Z,24.63
2019-02-22T11:20:31.490Z,24.18
2019-02-22T11:21:07.262Z,27.77
2019-02-22T11:21:42.970Z,28.20
2019-02-22T11:22:17.692Z,29.60
2019-02-22T11:22:52.250Z,26.62
2019-02-22T11:23:26.165Z,26.70
2019-02-22T11:24:00.744Z,24.15
2019-02-22T11:24:33.502Z,27.37
2019-02-22T11:25:09.820Z,25.35
2019-02-22T11:25:42.036Z,31.85
2019-02-22T11:26:15.368Z,27.50
2019-02-22T11:26:49.029Z,26.70
2019-02-22T11:27:21.028Z,25.92
2019-02-22T11:27:55.074Z,24.92
2019-02-22T11:28:30.173Z,26.52
2019-02-22T11:29:05.030Z,25.68
2019-02-22T11:29:40.272Z,29.55
2019-02-22T11:30:18.316Z,28.45
2019-02-22T11:30:52.743Z,22.58
2019-02-22T11:31:28.122Z,22.55
2019-02-22T11:32:03.862Z,22.05
2019-02-22T11:32:38.395Z,20.15
2019-02-22T11:33:14.825Z,27.32
2019-02-22T11:33:49.248Z,38.25
2019-02-22T11:34:22.970Z,21.55
2019-02-22T11:34:57.057Z,25.80
2019-02-22T11:35:30.656Z,25.20
2019-02-22T11:36:06.690Z,27.67
2019-02-22T11:36:41.936Z,28.70
2019-02-22T11:37:16.698Z,22.82
2019-02-22T11:37:53.003Z,28.80
2019-02-22T11:38:28.438Z,31.42
2019-02-22T11:39:03.259Z,24.00
2019-02-22T11:39:38.660Z,27.93
2019-02-22T11:40:14.555Z,25.02
2019-02-22T11:40:50.235Z,26.60
2019-02-22T11:41:27.576Z,26.52
2019-02-22T11:42:02.913Z,25.12
2019-02-22T11:42:40.727Z,22.17
2019-02-22T11:43:21.024Z,23.05
2019-02-22T11:43:59.549Z,31.33
2019-02-22T11:44:40.203Z,27.22
2019-02-22T11:45:12.539Z,28.42
2019-02-22T11:45:49.816Z,29.48
2019-02-22T11:46:22.766Z,30.95
2019-02-22T11:47:00.457Z,27.10
2019-02-22T11:47:37.528Z,22.42
2019-02-22T11:48:14.157Z,27.13
2019-02-22T11:48:49.274Z,27.50
2019-02-22T11:49:24.779Z,28.23
2019-02-22T11:49:59.845Z,25.57
2019-02-22T11:50:35.546Z,27.95
2019-02-22T11:51:10.448Z,23.15
2019-02-22T11:51:48.924Z,41.90
2019-02-22T11:52:24.231Z,24.57
2019-02-22T11:52:59.838Z,32.05
2019-02-22T11:53:34.586Z,25.95
2019-02-22T11:54:09.055Z,23.85
2019-02-22T11:54:44.002Z,25.32
2019-02-22T11:55:18.559Z,26.30
2019-02-22T11:55:54.807Z,21.93
2019-02-22T11:56:29.327Z,24.55
2019-02-22T11:57:06.458Z,27.58
2019-02-22T11:57:40.142Z,25.68
2019-02-22T11:58:14.180Z,33.78
2019-02-22T11:58:49.554Z,27.65
2019-02-22T11:59:25.652Z,29.23
2019-02-22T12:00:00.473Z,23.62
2019-02-22T12:00:35.703Z,24.12
2019-02-22T12:01:10.446Z,26.77
2019-02-22T12:01:46.330Z,28.42
2019-02-22T12:02:16.518Z,29.67
2019-02-22T12:02:49.949Z,29.10
2019-02-22T12:03:29.667Z,28.20
2019-02-22T12:04:03.086Z,27.42
2019-02-22T12:04:39.908Z,21.42
2019-02-22T12:05:13.351Z,25.02
2019-02-22T12:05:46.944Z,22.85
2019-02-22T12:06:20.754Z,27.20
2019-02-22T12:06:50.893Z,22.32
2019-02-22T12:07:24.365Z,23.32
2019-02-22T12:07:58.029Z,23.30
2019-02-22T12:08:30.066Z,19.20
2019-02-22T12:09:04.440Z,24.92
2019-02-22T12:09:37.681Z,25.23
2019-02-22T12:10:11.608Z,32.58
2019-02-22T12:10:47.219Z,26.65
2019-02-22T12:11:23.138Z,21.97
2019-02-22T12:11:59.092Z,25.57
2019-02-22T12:12:35.623Z,24.43
2019-02-22T12:13:11.898Z,28.73
2019-02-22T12:13:48.115Z,22.15
2019-02-22T12:14:23.642Z,24.65
2019-02-22T12:14:59.332Z,26.23
2019-02-22T12:15:34.927Z,24.23
2019-02-22T12:16:12.151Z,21.10
2019-02-22T12:16:49.813Z,25.62
2019-02-22T12:17:24.677Z,24.87
2019-02-22T12:18:00.551Z,21.80
2019-02-22T12:18:36.579Z,23.18
2019-02-22T12:19:14.090Z,27.98
2019-02-22T12:19:49.650Z,21.93
2019-02-22T12:20:26.946Z,26.52
2019-02-22T12:21:03.847Z,24.85
2019-02-22T13:00:23.616Z,19.75
